logo
Rechercher aéroport 
image banner adimage banner adimage banner ad
image banner ad

CL74 - Skyotee Ranch

Situé à Rosamond, United States

ICAO - CL74, IATA -

Données fournies par Airmate  

Information générale

Coordonnées: N34°49'55" W118°24'3"
Élévation : 2600 feet MSL.
Variation magnétique : 14° East
Voir autres Aéroports à California

Données opérationnelles

Special qualification required
Heure actuelle UTC:
Heure actuelle locale:
Météo à : KWJF - General Wm J Fox Airfield ( 19 km )
METAR: KWJF 281256Z AUTO 27004KT 10SM CLR 17/04 A3002 RMK AO2 SLP146 T01720044
TAF: KWJF 281148Z 2812/2912 VRB03KT P6SM SKC FM282300 23014G22KT P6SM SKC FM290300 25010KT P6SM SKC
Voir NOTAMs / SUP AIP / TFR affectant cet aéroport [VIEW]
Fréquences de communication: [VIEW]

Pistes:

Identifiant RWYQFULongueur (ft)Largeur (ft)SurfaceLDA (ft)
072600100EARTH
252600100EARTH

Coordonnées de l'aéroport

Adresse: Rosamond United States

Vue satellite de CL74